sensor_id;sensor_type;location;lat;lon;timestamp;temperature;humidity
14682;DHT22;7429;52.498;13.480;2022-09-21T00:01:43;9.00;99.90
14682;DHT22;7429;52.498;13.480;2022-09-21T00:04:46;9.00;99.90
14682;DHT22;7429;52.498;13.480;2022-09-21T00:07:51;9.00;99.90
14682;DHT22;7429;52.498;13.480;2022-09-21T00:10:55;9.00;99.90
14682;DHT22;7429;52.498;13.480;2022-09-21T00:14:00;9.00;99.90
14682;DHT22;7429;52.498;13.480;2022-09-21T00:17:05;9.00;99.90
14682;DHT22;7429;52.498;13.480;2022-09-21T00:20:09;9.00;99.90
14682;DHT22;7429;52.498;13.480;2022-09-21T00:23:12;8.90;99.90
14682;DHT22;7429;52.498;13.480;2022-09-21T00:26:18;8.90;99.90
14682;DHT22;7429;52.498;13.480;2022-09-21T00:29:22;8.90;99.90
14682;DHT22;7429;52.498;13.480;2022-09-21T00:32:26;8.90;99.90
14682;DHT22;7429;52.498;13.480;2022-09-21T00:35:29;8.90;99.90
14682;DHT22;7429;52.498;13.480;2022-09-21T00:38:33;8.90;99.90
14682;DHT22;7429;52.498;13.480;2022-09-21T00:41:38;8.90;99.90
14682;DHT22;7429;52.498;13.480;2022-09-21T00:44:44;8.90;99.90
14682;DHT22;7429;52.498;13.480;2022-09-21T00:47:49;8.90;99.90
14682;DHT22;7429;52.498;13.480;2022-09-21T00:50:55;8.90;99.90
14682;DHT22;7429;52.498;13.480;2022-09-21T00:54:06;8.90;99.90
14682;DHT22;7429;52.498;13.480;2022-09-21T00:57:24;8.90;99.90
14682;DHT22;7429;52.498;13.480;2022-09-21T01:00:29;8.80;99.90
14682;DHT22;7429;52.498;13.480;2022-09-21T01:03:33;8.90;99.90
14682;DHT22;7429;52.498;13.480;2022-09-21T01:06:37;8.90;99.90
14682;DHT22;7429;52.498;13.480;2022-09-21T01:09:41;8.90;99.90
14682;DHT22;7429;52.498;13.480;2022-09-21T01:12:54;8.90;99.90
14682;DHT22;7429;52.498;13.480;2022-09-21T01:16:10;9.00;99.90
14682;DHT22;7429;52.498;13.480;2022-09-21T01:19:28;9.00;99.90
14682;DHT22;7429;52.498;13.480;2022-09-21T01:22:53;9.00;99.90
14682;DHT22;7429;52.498;13.480;2022-09-21T01:26:10;9.00;99.90
14682;DHT22;7429;52.498;13.480;2022-09-21T01:29:22;9.00;99.90
14682;DHT22;7429;52.498;13.480;2022-09-21T01:32:32;9.00;99.90
14682;DHT22;7429;52.498;13.480;2022-09-21T01:35:41;9.00;99.90
14682;DHT22;7429;52.498;13.480;2022-09-21T01:38:49;8.90;99.90
14682;DHT22;7429;52.498;13.480;2022-09-21T01:41:55;8.90;99.90
14682;DHT22;7429;52.498;13.480;2022-09-21T01:45:02;9.00;99.90
14682;DHT22;7429;52.498;13.480;2022-09-21T01:48:08;9.00;99.90
14682;DHT22;7429;52.498;13.480;2022-09-21T01:51:14;9.00;99.90
14682;DHT22;7429;52.498;13.480;2022-09-21T01:54:28;8.90;99.90
14682;DHT22;7429;52.498;13.480;2022-09-21T01:57:39;8.90;99.90
14682;DHT22;7429;52.498;13.480;2022-09-21T02:00:48;8.90;99.90
14682;DHT22;7429;52.498;13.480;2022-09-21T02:03:55;8.90;99.90
14682;DHT22;7429;52.498;13.480;2022-09-21T02:07:00;8.90;99.90
14682;DHT22;7429;52.498;13.480;2022-09-21T02:10:05;8.90;99.90
14682;DHT22;7429;52.498;13.480;2022-09-21T02:13:10;8.90;99.90
14682;DHT22;7429;52.498;13.480;2022-09-21T02:16:33;8.90;99.90
14682;DHT22;7429;52.498;13.480;2022-09-21T02:19:44;8.90;99.90
14682;DHT22;7429;52.498;13.480;2022-09-21T02:22:56;8.90;99.90
14682;DHT22;7429;52.498;13.480;2022-09-21T02:26:08;8.90;99.90
14682;DHT22;7429;52.498;13.480;2022-09-21T02:29:19;8.90;99.90
14682;DHT22;7429;52.498;13.480;2022-09-21T02:32:30;8.90;99.90
14682;DHT22;7429;52.498;13.480;2022-09-21T02:35:41;8.80;99.90
14682;DHT22;7429;52.498;13.480;2022-09-21T02:38:52;8.80;99.90
14682;DHT22;7429;52.498;13.480;2022-09-21T02:42:02;8.80;99.90
14682;DHT22;7429;52.498;13.480;2022-09-21T02:45:12;8.70;99.90
14682;DHT22;7429;52.498;13.480;2022-09-21T02:48:22;8.70;99.90
14682;DHT22;7429;52.498;13.480;2022-09-21T02:51:30;8.70;99.90
14682;DHT22;7429;52.498;13.480;2022-09-21T02:54:35;8.70;99.90
14682;DHT22;7429;52.498;13.480;2022-09-21T02:57:40;8.70;99.90
14682;DHT22;7429;52.498;13.480;2022-09-21T03:00:43;8.70;99.90
14682;DHT22;7429;52.498;13.480;2022-09-21T03:03:50;8.70;99.90
14682;DHT22;7429;52.498;13.480;2022-09-21T03:06:53;8.70;99.90
14682;DHT22;7429;52.498;13.480;2022-09-21T03:09:57;8.70;99.90
14682;DHT22;7429;52.498;13.480;2022-09-21T03:13:01;8.80;99.90
14682;DHT22;7429;52.498;13.480;2022-09-21T03:16:05;8.70;99.90
14682;DHT22;7429;52.498;13.480;2022-09-21T03:19:10;8.70;99.90
14682;DHT22;7429;52.498;13.480;2022-09-21T03:22:13;8.80;99.90
14682;DHT22;7429;52.498;13.480;2022-09-21T03:25:18;8.80;99.90
14682;DHT22;7429;52.498;13.480;2022-09-21T03:28:21;8.70;99.90
14682;DHT22;7429;52.498;13.480;2022-09-21T03:31:25;8.70;99.90
14682;DHT22;7429;52.498;13.480;2022-09-21T03:34:29;8.70;99.90
14682;DHT22;7429;52.498;13.480;2022-09-21T03:37:34;8.80;99.90
14682;DHT22;7429;52.498;13.480;2022-09-21T03:40:43;8.80;99.90
14682;DHT22;7429;52.498;13.480;2022-09-21T03:43:47;8.80;99.90
14682;DHT22;7429;52.498;13.480;2022-09-21T03:46:51;8.90;99.90
14682;DHT22;7429;52.498;13.480;2022-09-21T03:49:55;8.90;99.90
14682;DHT22;7429;52.498;13.480;2022-09-21T03:52:58;8.90;99.90
14682;DHT22;7429;52.498;13.480;2022-09-21T03:56:02;9.00;99.90
14682;DHT22;7429;52.498;13.480;2022-09-21T03:59:05;8.90;99.90
14682;DHT22;7429;52.498;13.480;2022-09-21T04:02:14;8.90;99.90
14682;DHT22;7429;52.498;13.480;2022-09-21T04:05:20;8.90;99.90
14682;DHT22;7429;52.498;13.480;2022-09-21T04:08:23;8.90;99.90
14682;DHT22;7429;52.498;13.480;2022-09-21T04:11:26;8.90;99.90
14682;DHT22;7429;52.498;13.480;2022-09-21T04:14:33;8.90;99.90
14682;DHT22;7429;52.498;13.480;2022-09-21T04:17:37;8.90;99.90
14682;DHT22;7429;52.498;13.480;2022-09-21T04:20:42;8.90;99.90
14682;DHT22;7429;52.498;13.480;2022-09-21T04:23:45;8.90;99.90
14682;DHT22;7429;52.498;13.480;2022-09-21T04:26:48;8.90;99.90
14682;DHT22;7429;52.498;13.480;2022-09-21T04:29:51;8.90;99.90
14682;DHT22;7429;52.498;13.480;2022-09-21T04:32:54;8.90;99.90
14682;DHT22;7429;52.498;13.480;2022-09-21T04:35:59;8.90;99.90
14682;DHT22;7429;52.498;13.480;2022-09-21T04:39:03;8.90;99.90
14682;DHT22;7429;52.498;13.480;2022-09-21T04:42:08;8.80;99.90
14682;DHT22;7429;52.498;13.480;2022-09-21T04:45:11;8.80;99.90
14682;DHT22;7429;52.498;13.480;2022-09-21T04:48:14;8.70;99.90
14682;DHT22;7429;52.498;13.480;2022-09-21T04:51:20;8.70;99.90
14682;DHT22;7429;52.498;13.480;2022-09-21T04:54:23;8.70;99.90
14682;DHT22;7429;52.498;13.480;2022-09-21T04:57:26;8.70;99.90
14682;DHT22;7429;52.498;13.480;2022-09-21T05:00:29;8.70;99.90
14682;DHT22;7429;52.498;13.480;2022-09-21T05:03:33;8.70;99.90
14682;DHT22;7429;52.498;13.480;2022-09-21T05:06:37;8.60;99.90
14682;DHT22;7429;52.498;13.480;2022-09-21T05:09:40;8.60;99.90
14682;DHT22;7429;52.498;13.480;2022-09-21T05:13:02;8.60;99.90
14682;DHT22;7429;52.498;13.480;2022-09-21T05:16:05;8.70;99.90
14682;DHT22;7429;52.498;13.480;2022-09-21T05:19:08;8.70;99.90
14682;DHT22;7429;52.498;13.480;2022-09-21T05:22:12;8.70;99.90
14682;DHT22;7429;52.498;13.480;2022-09-21T05:25:16;8.70;99.90
14682;DHT22;7429;52.498;13.480;2022-09-21T05:28:19;8.70;99.90
14682;DHT22;7429;52.498;13.480;2022-09-21T05:31:38;8.70;99.90
14682;DHT22;7429;52.498;13.480;2022-09-21T05:34:49;8.80;99.90
14682;DHT22;7429;52.498;13.480;2022-09-21T05:38:04;8.80;99.90
14682;DHT22;7429;52.498;13.480;2022-09-21T05:41:11;8.80;99.90
14682;DHT22;7429;52.498;13.480;2022-09-21T05:44:15;8.90;99.90
14682;DHT22;7429;52.498;13.480;2022-09-21T05:47:24;8.90;99.90
14682;DHT22;7429;52.498;13.480;2022-09-21T05:50:47;8.90;99.90
14682;DHT22;7429;52.498;13.480;2022-09-21T05:53:58;9.00;99.90
14682;DHT22;7429;52.498;13.480;2022-09-21T05:57:12;9.00;99.90
14682;DHT22;7429;52.498;13.480;2022-09-21T06:00:20;9.10;99.90
14682;DHT22;7429;52.498;13.480;2022-09-21T06:03:28;9.10;99.90
14682;DHT22;7429;52.498;13.480;2022-09-21T06:06:32;9.20;99.90
14682;DHT22;7429;52.498;13.480;2022-09-21T06:09:37;9.30;99.90
14682;DHT22;7429;52.498;13.480;2022-09-21T06:12:44;9.30;99.90
14682;DHT22;7429;52.498;13.480;2022-09-21T06:15:49;9.40;99.90
14682;DHT22;7429;52.498;13.480;2022-09-21T06:18:52;9.50;99.90
14682;DHT22;7429;52.498;13.480;2022-09-21T06:21:55;9.60;99.90
14682;DHT22;7429;52.498;13.480;2022-09-21T06:25:00;9.70;99.90
14682;DHT22;7429;52.498;13.480;2022-09-21T06:28:03;9.70;99.90
14682;DHT22;7429;52.498;13.480;2022-09-21T06:31:07;9.80;99.90
14682;DHT22;7429;52.498;13.480;2022-09-21T06:34:10;9.80;99.90
14682;DHT22;7429;52.498;13.480;2022-09-21T06:37:14;9.90;99.90
14682;DHT22;7429;52.498;13.480;2022-09-21T06:40:18;9.90;99.90
14682;DHT22;7429;52.498;13.480;2022-09-21T06:43:30;10.10;99.90
14682;DHT22;7429;52.498;13.480;2022-09-21T06:46:42;10.10;99.90
14682;DHT22;7429;52.498;13.480;2022-09-21T06:49:46;10.20;99.90
14682;DHT22;7429;52.498;13.480;2022-09-21T06:52:49;10.20;99.90
14682;DHT22;7429;52.498;13.480;2022-09-21T06:55:59;10.30;99.90
14682;DHT22;7429;52.498;13.480;2022-09-21T06:59:03;10.30;99.90
14682;DHT22;7429;52.498;13.480;2022-09-21T07:02:07;10.30;99.90
14682;DHT22;7429;52.498;13.480;2022-09-21T07:05:11;10.40;99.90
14682;DHT22;7429;52.498;13.480;2022-09-21T07:08:14;10.50;99.90
14682;DHT22;7429;52.498;13.480;2022-09-21T07:11:39;10.50;99.90
14682;DHT22;7429;52.498;13.480;2022-09-21T07:14:43;10.60;99.90
14682;DHT22;7429;52.498;13.480;2022-09-21T07:17:52;10.60;99.90
14682;DHT22;7429;52.498;13.480;2022-09-21T07:21:09;10.70;99.90
14682;DHT22;7429;52.498;13.480;2022-09-21T07:24:13;10.80;99.90
14682;DHT22;7429;52.498;13.480;2022-09-21T07:27:18;10.90;99.90
14682;DHT22;7429;52.498;13.480;2022-09-21T07:30:21;11.00;99.90
14682;DHT22;7429;52.498;13.480;2022-09-21T07:33:25;11.00;99.90
14682;DHT22;7429;52.498;13.480;2022-09-21T07:36:31;11.10;99.90
14682;DHT22;7429;52.498;13.480;2022-09-21T07:39:34;11.20;99.90
14682;DHT22;7429;52.498;13.480;2022-09-21T07:42:41;11.20;99.90
14682;DHT22;7429;52.498;13.480;2022-09-21T07:45:51;11.30;99.90
14682;DHT22;7429;52.498;13.480;2022-09-21T07:48:57;11.40;99.90
14682;DHT22;7429;52.498;13.480;2022-09-21T07:52:01;11.50;99.90
14682;DHT22;7429;52.498;13.480;2022-09-21T07:55:09;11.60;99.90
14682;DHT22;7429;52.498;13.480;2022-09-21T07:58:13;11.70;99.90
14682;DHT22;7429;52.498;13.480;2022-09-21T08:01:34;11.80;99.90
14682;DHT22;7429;52.498;13.480;2022-09-21T08:04:38;11.80;99.90
14682;DHT22;7429;52.498;13.480;2022-09-21T08:07:41;11.90;99.90
14682;DHT22;7429;52.498;13.480;2022-09-21T08:10:44;12.00;99.90
14682;DHT22;7429;52.498;13.480;2022-09-21T08:13:53;12.10;99.90
14682;DHT22;7429;52.498;13.480;2022-09-21T08:17:24;12.20;99.90
14682;DHT22;7429;52.498;13.480;2022-09-21T08:20:27;12.20;99.90
14682;DHT22;7429;52.498;13.480;2022-09-21T08:23:35;12.30;99.90
14682;DHT22;7429;52.498;13.480;2022-09-21T08:26:47;12.40;99.90
14682;DHT22;7429;52.498;13.480;2022-09-21T08:30:00;12.40;99.90
14682;DHT22;7429;52.498;13.480;2022-09-21T08:33:03;12.50;99.90
14682;DHT22;7429;52.498;13.480;2022-09-21T08:36:08;12.60;99.90
14682;DHT22;7429;52.498;13.480;2022-09-21T08:39:11;12.60;99.90
14682;DHT22;7429;52.498;13.480;2022-09-21T08:42:32;12.60;99.90
14682;DHT22;7429;52.498;13.480;2022-09-21T08:45:43;12.80;99.90
14682;DHT22;7429;52.498;13.480;2022-09-21T08:48:52;12.90;99.90
14682;DHT22;7429;52.498;13.480;2022-09-21T08:52:01;13.00;99.90
14682;DHT22;7429;52.498;13.480;2022-09-21T08:55:13;13.10;99.90
14682;DHT22;7429;52.498;13.480;2022-09-21T08:58:23;13.20;99.90
14682;DHT22;7429;52.498;13.480;2022-09-21T09:01:36;13.40;99.90
14682;DHT22;7429;52.498;13.480;2022-09-21T09:04:52;13.40;99.90
14682;DHT22;7429;52.498;13.480;2022-09-21T09:12:07;13.60;99.90
14682;DHT22;7429;52.498;13.480;2022-09-21T09:15:37;13.80;99.90
14682;DHT22;7429;52.498;13.480;2022-09-21T09:18:52;14.10;99.90
14682;DHT22;7429;52.498;13.480;2022-09-21T09:21:57;14.50;99.90
14682;DHT22;7429;52.498;13.480;2022-09-21T09:25:04;14.80;99.90
14682;DHT22;7429;52.498;13.480;2022-09-21T09:28:22;15.00;99.90
14682;DHT22;7429;52.498;13.480;2022-09-21T09:31:30;15.00;99.90
14682;DHT22;7429;52.498;13.480;2022-09-21T09:34:38;15.00;99.90
14682;DHT22;7429;52.498;13.480;2022-09-21T09:37:44;15.10;99.90
14682;DHT22;7429;52.498;13.480;2022-09-21T09:41:01;15.20;99.90
14682;DHT22;7429;52.498;13.480;2022-09-21T09:44:35;15.30;99.90
14682;DHT22;7429;52.498;13.480;2022-09-21T09:47:57;15.50;99.90
14682;DHT22;7429;52.498;13.480;2022-09-21T09:51:10;15.70;99.90
14682;DHT22;7429;52.498;13.480;2022-09-21T09:54:15;16.00;99.90
14682;DHT22;7429;52.498;13.480;2022-09-21T09:57:23;16.10;99.90
14682;DHT22;7429;52.498;13.480;2022-09-21T10:00:29;16.20;99.90
14682;DHT22;7429;52.498;13.480;2022-09-21T10:03:32;16.30;99.90
14682;DHT22;7429;52.498;13.480;2022-09-21T10:06:38;16.50;99.90
14682;DHT22;7429;52.498;13.480;2022-09-21T10:09:46;16.80;99.90
14682;DHT22;7429;52.498;13.480;2022-09-21T10:12:50;17.10;99.90
14682;DHT22;7429;52.498;13.480;2022-09-21T10:15:56;17.10;99.90
14682;DHT22;7429;52.498;13.480;2022-09-21T10:19:01;17.00;99.90
14682;DHT22;7429;52.498;13.480;2022-09-21T10:22:06;16.80;99.90
14682;DHT22;7429;52.498;13.480;2022-09-21T10:25:18;16.70;99.90
14682;DHT22;7429;52.498;13.480;2022-09-21T10:28:28;17.00;99.90
14682;DHT22;7429;52.498;13.480;2022-09-21T10:31:32;17.40;99.90
14682;DHT22;7429;52.498;13.480;2022-09-21T10:34:38;17.60;99.90
14682;DHT22;7429;52.498;13.480;2022-09-21T10:37:44;17.70;99.90
14682;DHT22;7429;52.498;13.480;2022-09-21T10:40:54;17.80;99.90
14682;DHT22;7429;52.498;13.480;2022-09-21T10:43:57;18.20;99.90
14682;DHT22;7429;52.498;13.480;2022-09-21T10:47:15;18.50;99.90
14682;DHT22;7429;52.498;13.480;2022-09-21T10:50:28;18.60;99.90
14682;DHT22;7429;52.498;13.480;2022-09-21T10:53:35;18.60;99.90
14682;DHT22;7429;52.498;13.480;2022-09-21T10:56:50;18.70;99.90
14682;DHT22;7429;52.498;13.480;2022-09-21T10:59:54;18.70;99.90
14682;DHT22;7429;52.498;13.480;2022-09-21T11:02:58;18.60;99.90
14682;DHT22;7429;52.498;13.480;2022-09-21T11:06:06;18.40;99.90
14682;DHT22;7429;52.498;13.480;2022-09-21T11:09:18;18.00;99.90
14682;DHT22;7429;52.498;13.480;2022-09-21T11:12:33;17.90;99.90
14682;DHT22;7429;52.498;13.480;2022-09-21T11:15:48;17.80;99.90
14682;DHT22;7429;52.498;13.480;2022-09-21T11:18:59;17.70;99.90
14682;DHT22;7429;52.498;13.480;2022-09-21T11:22:10;17.50;99.90
14682;DHT22;7429;52.498;13.480;2022-09-21T11:25:26;17.20;99.90
14682;DHT22;7429;52.498;13.480;2022-09-21T11:28:38;17.40;99.90
14682;DHT22;7429;52.498;13.480;2022-09-21T11:31:58;17.90;99.90
14682;DHT22;7429;52.498;13.480;2022-09-21T11:35:33;18.40;99.90
14682;DHT22;7429;52.498;13.480;2022-09-21T11:38:49;18.90;99.90
14682;DHT22;7429;52.498;13.480;2022-09-21T11:42:10;19.20;99.90
14682;DHT22;7429;52.498;13.480;2022-09-21T11:45:31;19.50;99.90
14682;DHT22;7429;52.498;13.480;2022-09-21T11:48:50;19.50;99.90
14682;DHT22;7429;52.498;13.480;2022-09-21T11:52:20;18.90;99.90
14682;DHT22;7429;52.498;13.480;2022-09-21T11:55:46;18.40;99.90
14682;DHT22;7429;52.498;13.480;2022-09-21T11:59:04;18.00;99.90
14682;DHT22;7429;52.498;13.480;2022-09-21T12:02:33;17.70;99.90
14682;DHT22;7429;52.498;13.480;2022-09-21T12:05:49;17.50;99.90
14682;DHT22;7429;52.498;13.480;2022-09-21T12:12:50;17.20;99.90
14682;DHT22;7429;52.498;13.480;2022-09-21T12:16:04;17.70;99.90
14682;DHT22;7429;52.498;13.480;2022-09-21T12:19:13;18.30;99.90
14682;DHT22;7429;52.498;13.480;2022-09-21T12:22:31;18.80;99.90
14682;DHT22;7429;52.498;13.480;2022-09-21T12:25:39;19.00;99.90
14682;DHT22;7429;52.498;13.480;2022-09-21T12:28:46;19.20;99.90
14682;DHT22;7429;52.498;13.480;2022-09-21T12:31:58;19.40;99.90
14682;DHT22;7429;52.498;13.480;2022-09-21T12:35:11;19.50;99.90
14682;DHT22;7429;52.498;13.480;2022-09-21T12:38:20;19.50;99.90
14682;DHT22;7429;52.498;13.480;2022-09-21T12:41:32;19.50;99.90
14682;DHT22;7429;52.498;13.480;2022-09-21T12:44:43;19.80;99.90
14682;DHT22;7429;52.498;13.480;2022-09-21T12:48:03;19.80;99.90
14682;DHT22;7429;52.498;13.480;2022-09-21T12:51:12;19.90;99.90
14682;DHT22;7429;52.498;13.480;2022-09-21T12:54:24;20.00;99.90
14682;DHT22;7429;52.498;13.480;2022-09-21T12:57:44;20.10;99.90
14682;DHT22;7429;52.498;13.480;2022-09-21T13:01:23;19.90;99.90
14682;DHT22;7429;52.498;13.480;2022-09-21T13:04:40;20.00;99.90
14682;DHT22;7429;52.498;13.480;2022-09-21T13:07:59;19.50;99.90
14682;DHT22;7429;52.498;13.480;2022-09-21T13:11:06;19.20;99.90
14682;DHT22;7429;52.498;13.480;2022-09-21T13:14:13;19.20;99.90
14682;DHT22;7429;52.498;13.480;2022-09-21T13:17:21;19.10;99.90
14682;DHT22;7429;52.498;13.480;2022-09-21T13:20:33;18.80;99.90
14682;DHT22;7429;52.498;13.480;2022-09-21T13:23:38;19.10;99.90
14682;DHT22;7429;52.498;13.480;2022-09-21T13:26:51;19.40;99.90
14682;DHT22;7429;52.498;13.480;2022-09-21T13:30:20;19.40;99.90
14682;DHT22;7429;52.498;13.480;2022-09-21T13:33:40;19.50;99.90
14682;DHT22;7429;52.498;13.480;2022-09-21T13:37:29;19.90;99.90
14682;DHT22;7429;52.498;13.480;2022-09-21T13:40:33;20.40;99.90
14682;DHT22;7429;52.498;13.480;2022-09-21T13:44:02;20.30;99.90
14682;DHT22;7429;52.498;13.480;2022-09-21T13:47:08;20.10;99.90
14682;DHT22;7429;52.498;13.480;2022-09-21T13:50:20;20.40;99.90
14682;DHT22;7429;52.498;13.480;2022-09-21T13:53:32;20.40;99.90
14682;DHT22;7429;52.498;13.480;2022-09-21T13:56:39;20.30;99.90
14682;DHT22;7429;52.498;13.480;2022-09-21T13:59:46;20.00;99.90
14682;DHT22;7429;52.498;13.480;2022-09-21T14:02:57;19.80;99.90
14682;DHT22;7429;52.498;13.480;2022-09-21T14:06:05;19.90;99.90
14682;DHT22;7429;52.498;13.480;2022-09-21T14:09:21;20.10;99.90
14682;DHT22;7429;52.498;13.480;2022-09-21T14:12:37;20.30;99.90
14682;DHT22;7429;52.498;13.480;2022-09-21T14:15:47;20.50;99.90
14682;DHT22;7429;52.498;13.480;2022-09-21T14:18:50;20.50;99.90
14682;DHT22;7429;52.498;13.480;2022-09-21T14:25:49;20.40;99.90
14682;DHT22;7429;52.498;13.480;2022-09-21T14:28:54;20.40;99.90
14682;DHT22;7429;52.498;13.480;2022-09-21T14:32:01;20.60;99.90
14682;DHT22;7429;52.498;13.480;2022-09-21T14:35:11;20.90;99.90
14682;DHT22;7429;52.498;13.480;2022-09-21T14:38:22;20.70;99.90
14682;DHT22;7429;52.498;13.480;2022-09-21T14:41:37;20.40;99.90
14682;DHT22;7429;52.498;13.480;2022-09-21T14:44:42;20.50;99.90
14682;DHT22;7429;52.498;13.480;2022-09-21T14:47:59;20.80;99.90
14682;DHT22;7429;52.498;13.480;2022-09-21T14:51:13;20.90;99.90
14682;DHT22;7429;52.498;13.480;2022-09-21T14:54:35;21.20;99.90
14682;DHT22;7429;52.498;13.480;2022-09-21T15:01:37;21.00;99.90
14682;DHT22;7429;52.498;13.480;2022-09-21T15:04:50;20.80;99.90
14682;DHT22;7429;52.498;13.480;2022-09-21T15:08:18;20.70;99.90
14682;DHT22;7429;52.498;13.480;2022-09-21T15:12:16;20.50;99.90
14682;DHT22;7429;52.498;13.480;2022-09-21T15:15:30;20.40;99.90
14682;DHT22;7429;52.498;13.480;2022-09-21T15:18:39;20.50;99.90
14682;DHT22;7429;52.498;13.480;2022-09-21T15:21:46;20.10;99.90
14682;DHT22;7429;52.498;13.480;2022-09-21T15:24:51;19.80;99.90
14682;DHT22;7429;52.498;13.480;2022-09-21T15:27:57;19.50;99.90
14682;DHT22;7429;52.498;13.480;2022-09-21T15:31:01;19.20;99.90
14682;DHT22;7429;52.498;13.480;2022-09-21T15:34:06;18.80;99.90
14682;DHT22;7429;52.498;13.480;2022-09-21T15:37:14;18.60;99.90
14682;DHT22;7429;52.498;13.480;2022-09-21T15:40:20;18.40;99.90
14682;DHT22;7429;52.498;13.480;2022-09-21T15:43:26;18.30;99.90
14682;DHT22;7429;52.498;13.480;2022-09-21T15:46:30;18.20;99.90
14682;DHT22;7429;52.498;13.480;2022-09-21T15:49:34;18.10;99.90
14682;DHT22;7429;52.498;13.480;2022-09-21T15:52:41;18.00;99.90
14682;DHT22;7429;52.498;13.480;2022-09-21T15:55:48;17.80;99.90
14682;DHT22;7429;52.498;13.480;2022-09-21T15:58:58;17.70;99.90
14682;DHT22;7429;52.498;13.480;2022-09-21T16:02:10;17.60;99.90
14682;DHT22;7429;52.498;13.480;2022-09-21T16:05:22;17.50;99.90
14682;DHT22;7429;52.498;13.480;2022-09-21T16:08:29;17.30;99.90
14682;DHT22;7429;52.498;13.480;2022-09-21T16:11:34;17.20;99.90
14682;DHT22;7429;52.498;13.480;2022-09-21T16:14:46;17.20;99.90
14682;DHT22;7429;52.498;13.480;2022-09-21T16:18:04;17.10;99.90
14682;DHT22;7429;52.498;13.480;2022-09-21T16:21:15;17.00;99.90
14682;DHT22;7429;52.498;13.480;2022-09-21T16:24:22;16.90;99.90
14682;DHT22;7429;52.498;13.480;2022-09-21T16:27:29;16.80;99.90
14682;DHT22;7429;52.498;13.480;2022-09-21T16:30:44;16.90;99.90
14682;DHT22;7429;52.498;13.480;2022-09-21T16:33:57;16.90;99.90
14682;DHT22;7429;52.498;13.480;2022-09-21T16:37:22;16.80;99.90
14682;DHT22;7429;52.498;13.480;2022-09-21T16:40:29;16.60;99.90
14682;DHT22;7429;52.498;13.480;2022-09-21T16:43:32;16.40;99.90
14682;DHT22;7429;52.498;13.480;2022-09-21T16:46:37;16.40;99.90
14682;DHT22;7429;52.498;13.480;2022-09-21T16:49:41;16.30;99.90
14682;DHT22;7429;52.498;13.480;2022-09-21T16:52:45;16.10;99.90
14682;DHT22;7429;52.498;13.480;2022-09-21T16:55:54;16.00;99.90
14682;DHT22;7429;52.498;13.480;2022-09-21T16:58:58;16.00;99.90
14682;DHT22;7429;52.498;13.480;2022-09-21T17:02:08;15.90;99.90
14682;DHT22;7429;52.498;13.480;2022-09-21T17:05:13;15.90;99.90
14682;DHT22;7429;52.498;13.480;2022-09-21T17:08:18;15.90;99.90
14682;DHT22;7429;52.498;13.480;2022-09-21T17:11:21;15.70;99.90
14682;DHT22;7429;52.498;13.480;2022-09-21T17:14:28;15.60;99.90
14682;DHT22;7429;52.498;13.480;2022-09-21T17:17:37;15.50;99.90
14682;DHT22;7429;52.498;13.480;2022-09-21T17:20:43;15.50;99.90
14682;DHT22;7429;52.498;13.480;2022-09-21T17:23:46;15.40;99.90
14682;DHT22;7429;52.498;13.480;2022-09-21T17:26:49;15.30;99.90
14682;DHT22;7429;52.498;13.480;2022-09-21T17:29:52;15.30;99.90
14682;DHT22;7429;52.498;13.480;2022-09-21T17:32:58;15.20;99.90
14682;DHT22;7429;52.498;13.480;2022-09-21T17:36:02;15.20;99.90
14682;DHT22;7429;52.498;13.480;2022-09-21T17:39:08;15.10;99.90
14682;DHT22;7429;52.498;13.480;2022-09-21T17:42:15;15.00;99.90
14682;DHT22;7429;52.498;13.480;2022-09-21T17:45:24;14.90;99.90
14682;DHT22;7429;52.498;13.480;2022-09-21T17:48:31;14.80;99.90
14682;DHT22;7429;52.498;13.480;2022-09-21T17:51:36;14.80;99.90
14682;DHT22;7429;52.498;13.480;2022-09-21T17:55:12;14.60;99.90
14682;DHT22;7429;52.498;13.480;2022-09-21T17:58:38;14.40;99.90
14682;DHT22;7429;52.498;13.480;2022-09-21T18:01:46;14.30;99.90
14682;DHT22;7429;52.498;13.480;2022-09-21T18:04:55;14.10;99.90
14682;DHT22;7429;52.498;13.480;2022-09-21T18:08:01;14.00;99.90
14682;DHT22;7429;52.498;13.480;2022-09-21T18:11:15;13.90;99.90
14682;DHT22;7429;52.498;13.480;2022-09-21T18:14:39;13.90;99.90
14682;DHT22;7429;52.498;13.480;2022-09-21T18:17:56;13.70;99.90
14682;DHT22;7429;52.498;13.480;2022-09-21T18:21:12;13.60;99.90
14682;DHT22;7429;52.498;13.480;2022-09-21T18:24:20;13.50;99.90
14682;DHT22;7429;52.498;13.480;2022-09-21T18:27:32;13.40;99.90
14682;DHT22;7429;52.498;13.480;2022-09-21T18:30:36;13.30;99.90
14682;DHT22;7429;52.498;13.480;2022-09-21T18:33:47;13.20;99.90
14682;DHT22;7429;52.498;13.480;2022-09-21T18:36:59;13.10;99.90
14682;DHT22;7429;52.498;13.480;2022-09-21T18:40:18;13.00;99.90
14682;DHT22;7429;52.498;13.480;2022-09-21T18:43:35;13.00;99.90
14682;DHT22;7429;52.498;13.480;2022-09-21T18:46:55;13.00;99.90
14682;DHT22;7429;52.498;13.480;2022-09-21T18:50:09;12.90;99.90
14682;DHT22;7429;52.498;13.480;2022-09-21T18:53:28;12.80;99.90
14682;DHT22;7429;52.498;13.480;2022-09-21T18:56:35;12.80;99.90
14682;DHT22;7429;52.498;13.480;2022-09-21T18:59:40;12.70;99.90
14682;DHT22;7429;52.498;13.480;2022-09-21T19:02:44;12.60;99.90
14682;DHT22;7429;52.498;13.480;2022-09-21T19:06:19;12.50;99.90
14682;DHT22;7429;52.498;13.480;2022-09-21T19:09:39;12.50;99.90
14682;DHT22;7429;52.498;13.480;2022-09-21T19:12:54;12.30;99.90
14682;DHT22;7429;52.498;13.480;2022-09-21T19:16:10;12.30;99.90
14682;DHT22;7429;52.498;13.480;2022-09-21T19:19:26;12.20;99.90
14682;DHT22;7429;52.498;13.480;2022-09-21T19:22:41;12.20;99.90
14682;DHT22;7429;52.498;13.480;2022-09-21T19:25:52;12.20;99.90
14682;DHT22;7429;52.498;13.480;2022-09-21T19:32:41;12.20;99.90
14682;DHT22;7429;52.498;13.480;2022-09-21T19:35:47;12.20;99.90
14682;DHT22;7429;52.498;13.480;2022-09-21T19:38:50;12.20;99.90
14682;DHT22;7429;52.498;13.480;2022-09-21T19:42:06;12.20;99.90
14682;DHT22;7429;52.498;13.480;2022-09-21T19:45:16;12.20;99.90
14682;DHT22;7429;52.498;13.480;2022-09-21T19:48:26;12.20;99.90
14682;DHT22;7429;52.498;13.480;2022-09-21T19:51:36;12.10;99.90
14682;DHT22;7429;52.498;13.480;2022-09-21T19:54:41;12.00;99.90
14682;DHT22;7429;52.498;13.480;2022-09-21T19:58:04;12.00;99.90
14682;DHT22;7429;52.498;13.480;2022-09-21T20:01:25;11.90;99.90
14682;DHT22;7429;52.498;13.480;2022-09-21T20:04:33;12.00;99.90
14682;DHT22;7429;52.498;13.480;2022-09-21T20:07:47;11.90;99.90
14682;DHT22;7429;52.498;13.480;2022-09-21T20:11:08;11.90;99.90
14682;DHT22;7429;52.498;13.480;2022-09-21T20:14:25;11.80;99.90
14682;DHT22;7429;52.498;13.480;2022-09-21T20:17:38;11.70;99.90
14682;DHT22;7429;52.498;13.480;2022-09-21T20:20:47;11.70;99.90
14682;DHT22;7429;52.498;13.480;2022-09-21T20:23:57;11.60;99.90